createdAt,value
2016-06-13T00:00:21.856Z,76.61
2016-06-13T00:01:21.875Z,76.23
2016-06-13T00:02:21.816Z,76.23
2016-06-13T00:03:21.818Z,76.52
2016-06-13T00:04:21.774Z,76.32
2016-06-13T00:05:21.747Z,76.52
2016-06-13T00:06:21.734Z,76.52
2016-06-13T00:07:21.737Z,76.52
2016-06-13T00:08:21.692Z,76.42
2016-06-13T00:09:21.665Z,76.14
2016-06-13T00:10:21.496Z,76.52
2016-06-13T00:11:21.640Z,76.71
2016-06-13T00:12:21.627Z,76.81
2016-06-13T00:13:21.694Z,76.32
2016-06-13T00:14:21.618Z,76.71
2016-06-13T00:15:21.558Z,76.9
2016-06-13T00:16:21.545Z,76.71
2016-06-13T00:17:21.518Z,76.81
2016-06-13T00:18:21.506Z,76.81
2016-06-13T00:19:21.476Z,76.81
2016-06-13T00:20:21.808Z,76.81
2016-06-13T00:21:21.452Z,76.81
2016-06-13T00:22:21.408Z,77
2016-06-13T00:23:21.396Z,76.81
2016-06-13T00:24:21.384Z,77
2016-06-13T00:25:21.339Z,77
2016-06-13T00:26:21.342Z,76.81
2016-06-13T00:27:21.361Z,77
2016-06-13T00:28:21.317Z,77.29
2016-06-13T00:29:21.258Z,77.09
2016-06-13T00:30:21.245Z,75.94
2016-06-13T00:31:21.232Z,77.19
2016-06-13T00:32:21.205Z,77.29
2016-06-13T00:33:21.192Z,76.71
2016-06-13T00:34:21.164Z,76.32
2016-06-13T00:35:21.198Z,77.19
2016-06-13T00:36:21.107Z,77.29
2016-06-13T00:37:21.095Z,76.52
2016-06-13T00:38:21.098Z,77.09
2016-06-13T00:39:21.054Z,76.9
2016-06-13T00:40:21.042Z,76.86
2016-06-13T00:41:21.044Z,76.96
2016-06-13T00:42:21.016Z,76.71
2016-06-13T00:43:21.114Z,77.25
2016-06-13T00:44:21.070Z,77.19
2016-06-13T00:45:20.931Z,77.19
2016-06-13T00:46:20.920Z,76.71
2016-06-13T00:47:21.000Z,77.29
2016-06-13T00:48:20.879Z,77
2016-06-13T00:49:20.851Z,76.77
2016-06-13T00:50:20.838Z,76.81
2016-06-13T00:51:20.825Z,76.9
2016-06-13T00:52:20.797Z,77
2016-06-13T00:53:20.800Z,77.15
2016-06-13T00:54:20.757Z,77.15
2016-06-13T00:55:20.744Z,77.25
2016-06-13T00:56:20.794Z,76.86
2016-06-13T00:57:20.751Z,76.96
2016-06-13T00:58:20.675Z,76.96
2016-06-13T00:59:20.663Z,76.96
2016-06-13T01:00:20.650Z,77.06
2016-06-13T01:01:20.622Z,76.77
2016-06-13T01:02:20.594Z,76.86
2016-06-13T01:03:20.565Z,76.77
2016-06-13T01:04:20.553Z,76.77
2016-06-13T01:05:20.526Z,77.34
2016-06-13T01:06:20.543Z,77.34
2016-06-13T01:07:20.609Z,77.44
2016-06-13T01:08:20.472Z,77.44
2016-06-13T01:09:20.458Z,76.96
2016-06-13T01:10:20.430Z,77.34
2016-06-13T01:11:20.433Z,77.44
2016-06-13T01:12:20.375Z,77.63
2016-06-13T01:13:20.362Z,77.53
2016-06-13T01:14:20.598Z,77.25
2016-06-13T01:15:20.321Z,77.83
2016-06-13T01:16:20.309Z,77.44
2016-06-13T01:17:20.296Z,77.34
2016-06-13T01:18:20.268Z,77.34
2016-06-13T01:19:20.349Z,77.53
2016-06-13T01:20:20.227Z,77.53
2016-06-13T01:21:20.199Z,77.53
2016-06-13T01:22:20.171Z,77.44
2016-06-13T01:23:20.159Z,77.25
2016-06-13T01:24:20.129Z,77.25
2016-06-13T01:25:20.117Z,77.25
2016-06-13T01:26:20.276Z,77.34
2016-06-13T01:27:20.077Z,77.34
2016-06-13T01:28:20.064Z,77.34
2016-06-13T01:29:20.036Z,77.34
2016-06-13T01:30:20.008Z,77.44
2016-06-13T01:31:19.995Z,77.44
2016-06-13T01:32:19.983Z,77.44
2016-06-13T01:33:19.954Z,77.15
2016-06-13T01:34:19.927Z,77.15
2016-06-13T01:35:19.913Z,77.34
2016-06-13T01:36:19.901Z,77.53
2016-06-13T01:37:19.874Z,77.34
2016-06-13T01:38:19.845Z,77.44
2016-06-13T01:39:19.833Z,77.34
2016-06-13T01:40:19.803Z,77.53
2016-06-13T01:41:20.245Z,77.53
2016-06-13T01:42:19.779Z,77.73
2016-06-13T01:43:19.751Z,77.83
2016-06-13T01:44:19.723Z,77.73
2016-06-13T01:45:19.711Z,77.53
2016-06-13T01:46:19.682Z,77.92
2016-06-13T01:47:19.763Z,77.92
2016-06-13T01:48:19.641Z,78.02
2016-06-13T01:49:19.613Z,77.92
2016-06-13T01:50:19.617Z,77.92
2016-06-13T01:51:19.587Z,77.92
2016-06-13T01:52:19.559Z,78.02
2016-06-13T01:53:19.562Z,77.83
2016-06-13T01:54:19.519Z,77.83
2016-06-13T01:55:19.537Z,77.83
2016-06-13T01:56:20.494Z,77.83
2016-06-13T01:57:19.481Z,78.02
2016-06-13T01:58:19.438Z,78.02
2016-06-13T01:59:19.425Z,78.11
2016-06-13T02:00:19.412Z,77.83
2016-06-13T02:01:19.385Z,78.02
2016-06-13T02:02:19.356Z,77.63
2016-06-13T02:03:19.328Z,77.83
2016-06-13T02:04:19.316Z,78.21
2016-06-13T02:05:19.287Z,78.21
2016-06-13T02:06:19.322Z,78.21
2016-06-13T02:07:19.247Z,77.92
2016-06-13T02:08:19.249Z,78.02
2016-06-13T02:09:19.237Z,77.92
2016-06-13T02:10:19.225Z,77.92
2016-06-13T02:11:19.274Z,78.02
2016-06-13T02:12:19.152Z,78.21
2016-06-13T02:13:18.984Z,77.92
2016-06-13T02:14:19.127Z,77.92
2016-06-13T02:15:19.100Z,78.02
2016-06-13T02:16:19.071Z,78.11
2016-06-13T02:17:19.042Z,78.5
2016-06-13T02:18:19.139Z,78.5
2016-06-13T02:19:19.003Z,77.83
2016-06-13T02:20:18.990Z,78.4
2016-06-13T02:21:18.962Z,78.4
2016-06-13T02:22:18.949Z,78.3
2016-06-13T02:23:18.843Z,78.5
2016-06-13T02:24:18.893Z,78.59
2016-06-13T02:25:18.864Z,78.5
2016-06-13T02:26:18.852Z,78.5
2016-06-13T02:27:18.839Z,78.3
2016-06-13T02:28:18.811Z,78.21
2016-06-13T02:29:18.799Z,78.21
2016-06-13T02:30:18.770Z,78.59
2016-06-13T02:31:18.758Z,78.69
2016-06-13T02:32:18.824Z,78.59
2016-06-13T02:33:18.733Z,78.4
2016-06-13T02:34:18.688Z,78.4
2016-06-13T02:35:18.677Z,78.3
2016-06-13T02:36:18.680Z,78.3
2016-06-13T02:37:18.636Z,78.5
2016-06-13T02:38:18.607Z,78.4
2016-06-13T02:39:18.595Z,78.4
2016-06-13T02:40:18.567Z,78.5
2016-06-13T02:41:18.538Z,78.5
2016-06-13T02:42:18.510Z,78.4
2016-06-13T02:43:18.514Z,78.36
2016-06-13T02:44:18.486Z,78.21
2016-06-13T02:45:18.519Z,78.4
2016-06-13T02:46:18.445Z,78.45
2016-06-13T02:47:18.432Z,78.69
2016-06-13T02:48:18.404Z,78.4
2016-06-13T02:49:18.375Z,78.69
2016-06-13T02:50:18.706Z,78.75
2016-06-13T02:51:18.413Z,78.98
2016-06-13T02:52:18.322Z,78.36
2016-06-13T02:53:18.294Z,78.3
2016-06-13T02:54:18.297Z,79.27
2016-06-13T02:55:18.270Z,78.98
2016-06-13T02:56:18.100Z,78.98
2016-06-13T02:57:18.056Z,78.88
2016-06-13T02:58:18.201Z,78.88
2016-06-13T02:59:18.172Z,78.98
2016-06-13T03:00:18.191Z,78.88
2016-06-13T03:01:18.115Z,78.94
2016-06-13T03:02:18.150Z,78.84
2016-06-13T03:03:18.091Z,78.88
2016-06-13T03:04:18.062Z,78.94
2016-06-13T03:05:18.050Z,79.17
2016-06-13T03:06:18.022Z,78.84
2016-06-13T03:07:18.009Z,78.84
2016-06-13T03:08:18.029Z,78.84
2016-06-13T03:09:17.984Z,78.65
2016-06-13T03:10:17.940Z,78.94
2016-06-13T03:11:17.850Z,78.84
2016-06-13T03:12:17.900Z,78.94
2016-06-13T03:13:17.871Z,78.94
2016-06-13T03:14:17.859Z,79.13
2016-06-13T03:15:17.862Z,79.13
2016-06-13T03:16:17.817Z,78.84
2016-06-13T03:17:17.868Z,78.84
2016-06-13T03:18:17.809Z,78.94
2016-06-13T03:19:17.780Z,79.03
2016-06-13T03:20:17.736Z,78.84
2016-06-13T03:21:17.709Z,79.13
2016-06-13T03:22:17.727Z,78.75
2016-06-13T03:23:17.667Z,78.75
2016-06-13T03:24:17.639Z,78.84
2016-06-13T03:25:17.643Z,78.84
2016-06-13T03:26:17.520Z,78.84
2016-06-13T03:27:17.873Z,78.94
2016-06-13T03:28:17.620Z,79.52
2016-06-13T03:29:17.663Z,79.03
2016-06-13T03:30:17.676Z,79.22
2016-06-13T03:31:17.688Z,79.32
2016-06-13T03:32:17.702Z,79.22
2016-06-13T03:33:17.703Z,79.32
2016-06-13T03:34:17.674Z,79.42
2016-06-13T03:35:17.675Z,79.32
2016-06-13T03:36:17.662Z,79.13
2016-06-13T03:37:17.658Z,79.32
2016-06-13T03:38:17.651Z,79.22
2016-06-13T03:39:17.660Z,79.22
2016-06-13T03:40:17.636Z,79.13
2016-06-13T03:41:18.333Z,79.32
2016-06-13T03:42:17.917Z,79.52
2016-06-13T03:43:17.563Z,79.8
2016-06-13T03:44:17.536Z,79.71
2016-06-13T03:45:17.588Z,79.9
2016-06-13T03:46:17.562Z,79.71
2016-06-13T03:47:17.473Z,79.9
2016-06-13T03:48:17.493Z,79.71
2016-06-13T03:49:17.449Z,79.42
2016-06-13T03:50:17.500Z,79.52
2016-06-13T03:51:17.410Z,79.52
2016-06-13T03:52:17.430Z,79.61
2016-06-13T03:53:17.385Z,79.52
2016-06-13T03:54:17.467Z,79.8
2016-06-13T03:55:17.735Z,80.09
2016-06-13T03:56:17.426Z,79.71
2016-06-13T03:57:17.288Z,80.09
2016-06-13T03:58:17.260Z,79.71
2016-06-13T03:59:17.232Z,79.71
2016-06-13T04:00:17.360Z,79.71
2016-06-13T04:01:17.425Z,79.8
2016-06-13T04:02:17.178Z,79.61
2016-06-13T04:03:17.167Z,79.71
2016-06-13T04:04:17.184Z,79.71
2016-06-13T04:05:17.126Z,79.71
2016-06-13T04:06:17.144Z,79.71
2016-06-13T04:07:17.163Z,79.71
2016-06-13T04:08:17.119Z,79.61
2016-06-13T04:09:17.074Z,79.71
2016-06-13T04:10:17.094Z,79.61
2016-06-13T04:11:17.050Z,79.61
2016-06-13T04:12:17.053Z,79.61
2016-06-13T04:13:17.009Z,79.8
2016-06-13T04:14:17.044Z,79.8
2016-06-13T04:15:16.968Z,79.9
2016-06-13T04:16:16.894Z,79.42
2016-06-13T04:17:16.881Z,79.61
2016-06-13T04:18:16.852Z,79.55
2016-06-13T04:19:16.950Z,79.55
2016-06-13T04:20:16.875Z,79.71
2016-06-13T04:21:16.799Z,79.84
2016-06-13T04:22:16.771Z,79.52
2016-06-13T04:23:16.742Z,79.61
2016-06-13T04:24:16.762Z,79.52
2016-06-13T04:25:16.718Z,79.84
2016-06-13T04:26:17.455Z,79.9
2016-06-13T04:27:16.505Z,79.36
2016-06-13T04:28:16.727Z,79.94
2016-06-13T04:29:16.683Z,79.36
2016-06-13T04:30:16.593Z,79.42
2016-06-13T04:31:16.597Z,79.84
2016-06-13T04:32:16.552Z,79.36
2016-06-13T04:33:16.539Z,79.36
2016-06-13T04:34:16.511Z,79.36
2016-06-13T04:35:16.483Z,79.36
2016-06-13T04:36:16.612Z,79.36
2016-06-13T04:37:16.457Z,79.94
2016-06-13T04:38:16.446Z,79.46
2016-06-13T04:39:16.433Z,79.46
2016-06-13T04:40:16.483Z,79.55
2016-06-13T04:41:16.392Z,79.46
2016-06-13T04:42:16.348Z,79.65
2016-06-13T04:43:16.336Z,79.84
2016-06-13T04:44:16.324Z,79.94
2016-06-13T04:45:16.295Z,79.94
2016-06-13T04:46:16.173Z,79.94
2016-06-13T04:47:16.239Z,79.84
2016-06-13T04:48:16.241Z,79.94
2016-06-13T04:49:16.213Z,79.84
2016-06-13T04:50:16.279Z,80.22
2016-06-13T04:51:16.158Z,80.13
2016-06-13T04:52:16.161Z,79.65
2016-06-13T04:53:16.273Z,79.84
2016-06-13T04:54:16.104Z,79.84
2016-06-13T04:55:16.201Z,79.84
2016-06-13T04:56:16.063Z,80.22
2016-06-13T04:57:16.223Z,80.13
2016-06-13T04:58:16.148Z,80.13
2016-06-13T04:59:16.166Z,80.42
2016-06-13T05:00:15.997Z,80.42
2016-06-13T05:01:15.970Z,80.42
2016-06-13T05:02:15.942Z,80.51
2016-06-13T05:03:15.929Z,80.22
2016-06-13T05:04:15.885Z,80.13
2016-06-13T05:05:15.871Z,80.32
2016-06-13T05:06:15.844Z,80.04
2016-06-13T05:07:15.847Z,80.04
2016-06-13T05:08:15.803Z,80.32
2016-06-13T05:09:15.791Z,80.42
2016-06-13T05:10:15.778Z,80.13
2016-06-13T05:11:15.750Z,80.13
2016-06-13T05:12:15.565Z,80.04
2016-06-13T05:13:15.709Z,80.13
2016-06-13T05:14:15.697Z,80.13
2016-06-13T05:15:15.669Z,80.04
2016-06-13T05:16:15.640Z,79.94
2016-06-13T05:17:15.613Z,80.13
2016-06-13T05:18:15.600Z,80.13
2016-06-13T05:19:15.572Z,80.13
2016-06-13T05:20:15.590Z,80.13
2016-06-13T05:21:15.546Z,80.13
2016-06-13T05:22:15.518Z,80.42
2016-06-13T05:23:15.521Z,80.13
2016-06-13T05:24:15.555Z,80.42
2016-06-13T05:25:15.433Z,80.32
2016-06-13T05:26:15.437Z,80.32
2016-06-13T05:27:15.722Z,80.42
2016-06-13T05:28:15.396Z,80.42
2016-06-13T05:29:15.367Z,80.04
2016-06-13T05:30:15.356Z,80.13
2016-06-13T05:31:15.609Z,80.32
2016-06-13T05:32:15.346Z,80.04
2016-06-13T05:33:15.302Z,80.22
2016-06-13T05:34:15.321Z,80.42
2016-06-13T05:35:15.308Z,80.32
2016-06-13T05:36:15.280Z,80.51
2016-06-13T05:37:15.377Z,80.32
2016-06-13T05:38:15.255Z,80.32
2016-06-13T05:39:15.164Z,80.8
2016-06-13T05:40:15.136Z,80.61
2016-06-13T05:41:28.936Z,80.51
2016-06-13T05:42:29.268Z,80.71
2016-06-13T05:43:28.896Z,80.61
2016-06-13T05:44:28.899Z,80.42
2016-06-13T05:45:28.870Z,80.32
2016-06-13T05:46:28.889Z,80.61
2016-06-13T05:47:15.236Z,80.42
2016-06-13T05:48:18.004Z,80.71
2016-06-13T05:49:17.961Z,80.9
2016-06-13T05:50:17.979Z,81.28
2016-06-13T05:51:15.357Z,80.71
2016-06-13T05:52:15.048Z,80.71
2016-06-13T05:53:14.988Z,80.8
2016-06-13T05:54:15.227Z,80.9
2016-06-13T05:55:15.183Z,80.99
2016-06-13T05:56:14.825Z,81.09
2016-06-13T05:57:15.001Z,80.8
2016-06-13T05:58:14.957Z,81.09
2016-06-13T05:59:14.976Z,80.99
2016-06-13T06:00:14.932Z,80.99
2016-06-13T06:01:14.731Z,80.8
2016-06-13T06:02:14.704Z,81.19
2016-06-13T06:03:14.691Z,80.71
2016-06-13T06:04:14.647Z,80.9
2016-06-13T06:05:14.635Z,80.8
2016-06-13T06:06:14.623Z,80.71
2016-06-13T06:07:14.594Z,80.99
2016-06-13T06:08:14.550Z,80.8
2016-06-13T06:09:14.553Z,80.8
2016-06-13T06:10:14.526Z,80.8
2016-06-13T06:11:14.529Z,80.99
2016-06-13T06:12:14.484Z,80.8
2016-06-13T06:13:14.472Z,80.71
2016-06-13T06:14:14.475Z,80.8
2016-06-13T06:15:14.447Z,80.71
2016-06-13T06:16:14.403Z,80.8
2016-06-13T06:17:14.687Z,80.71
2016-06-13T06:18:14.862Z,80.8
2016-06-13T06:19:14.646Z,80.8
2016-06-13T06:20:14.337Z,80.71
2016-06-13T06:21:14.309Z,80.71
2016-06-13T06:22:14.280Z,80.8
2016-06-13T06:23:14.316Z,81.09
2016-06-13T06:24:14.256Z,81.28
2016-06-13T06:25:14.774Z,81.09
2016-06-13T06:26:14.715Z,81.09
2016-06-13T06:27:14.718Z,80.99
2016-06-13T06:28:14.206Z,81.48
2016-06-13T06:29:14.209Z,81.57
2016-06-13T06:30:14.352Z,81.57
2016-06-13T06:31:14.355Z,81.38
2016-06-13T06:32:14.327Z,81.48
2016-06-13T06:33:14.267Z,81.67
2016-06-13T06:34:14.209Z,81.48
2016-06-13T06:35:14.181Z,81.76
2016-06-13T06:36:14.262Z,81.86
2016-06-13T06:37:14.139Z,81.67
2016-06-13T06:38:14.173Z,81.86
2016-06-13T06:39:14.083Z,82.15
2016-06-13T06:40:14.149Z,81.34
2016-06-13T06:41:13.964Z,81.24
2016-06-13T06:42:14.030Z,81.34
2016-06-13T06:43:14.080Z,81.34
2016-06-13T06:44:14.005Z,81.43
2016-06-13T06:45:13.851Z,81.34
2016-06-13T06:46:13.870Z,81.34
2016-06-13T06:47:13.905Z,81.53
2016-06-13T06:48:13.735Z,81.34
2016-06-13T06:49:13.849Z,81.43
2016-06-13T06:50:13.694Z,81.63
2016-06-13T06:51:13.683Z,81.53
2016-06-13T06:52:13.655Z,81.43
2016-06-13T06:53:13.642Z,81.28
2016-06-13T06:54:13.614Z,82.01
2016-06-13T06:55:13.584Z,82.05
2016-06-13T06:56:13.588Z,82.2
2016-06-13T06:57:13.576Z,81.53
2016-06-13T06:58:13.532Z,81.82
2016-06-13T06:59:13.504Z,81.72
2016-06-13T07:00:13.491Z,81.48
2016-06-13T07:01:13.464Z,81.76
2016-06-13T07:02:13.450Z,81.67
2016-06-13T07:03:13.422Z,81.48
2016-06-13T07:04:13.410Z,81.19
2016-06-13T07:05:13.382Z,81.57
2016-06-13T07:06:13.369Z,80.8
2016-06-13T07:07:13.357Z,81.19
2016-06-13T07:08:13.313Z,81.09
2016-06-13T07:09:13.285Z,80.8
2016-06-13T07:10:13.288Z,80.8
2016-06-13T07:11:13.291Z,80.9
2016-06-13T07:12:13.419Z,81.09
2016-06-13T07:13:13.219Z,80.9
2016-06-13T07:14:13.207Z,80.9
2016-06-13T07:15:13.178Z,80.99
2016-06-13T07:16:13.166Z,80.99
2016-06-13T07:17:13.138Z,80.99
2016-06-13T07:18:13.110Z,81.09
2016-06-13T07:19:13.081Z,81.28
2016-06-13T07:20:13.099Z,80.8
2016-06-13T07:21:13.056Z,80.71
2016-06-13T07:22:13.043Z,80.65
2016-06-13T07:23:13.046Z,80.71
2016-06-13T07:24:13.003Z,80.8
2016-06-13T07:25:12.991Z,80.65
2016-06-13T07:26:12.962Z,81.04
2016-06-13T07:27:13.793Z,80.84
2016-06-13T07:28:13.328Z,80.84
2016-06-13T07:29:12.909Z,80.75
2016-06-13T07:30:12.864Z,81.04
2016-06-13T07:31:12.867Z,81.13
2016-06-13T07:32:12.823Z,81.04
2016-06-13T07:33:12.812Z,80.84
2016-06-13T07:34:12.783Z,80.46
2016-06-13T07:35:12.771Z,80.65
2016-06-13T07:36:12.868Z,80.65
2016-06-13T07:37:12.746Z,80.55
2016-06-13T07:38:12.999Z,80.46
2016-06-13T07:39:12.689Z,80.27
2016-06-13T07:40:12.677Z,80.36
2016-06-13T07:41:12.665Z,80.65
2016-06-13T07:42:12.886Z,80.65
2016-06-13T07:43:12.655Z,81.23
2016-06-13T07:44:12.940Z,80.94
2016-06-13T07:45:12.629Z,80.94
2016-06-13T07:46:12.554Z,80.65
2016-06-13T07:47:12.574Z,80.94
2016-06-13T07:48:12.514Z,80.94
2016-06-13T07:49:12.486Z,81.04
2016-06-13T07:50:12.458Z,81.23
2016-06-13T07:51:12.507Z,81.13
2016-06-13T07:52:12.464Z,81.13
2016-06-13T07:53:12.561Z,81.61
2016-06-13T07:54:12.438Z,81.61
2016-06-13T07:55:12.441Z,81.42
2016-06-13T07:56:12.383Z,81.52
2016-06-13T07:57:13.011Z,81.42
2016-06-13T07:58:16.794Z,81.42
2016-06-13T08:00:12.442Z,81.61
2016-06-13T08:01:12.413Z,81.52
2016-06-13T08:02:12.401Z,81.71
2016-06-13T08:03:12.373Z,81.9
2016-06-13T08:04:12.485Z,81.52
2016-06-13T08:05:12.394Z,81.9
2016-06-13T08:06:12.382Z,81.9
2016-06-13T08:09:12.376Z,81.99
2016-06-13T08:12:12.416Z,81.61
2016-06-13T08:15:12.144Z,81.52
2016-06-13T08:16:14.943Z,81.61
2016-06-13T08:17:14.916Z,81.71
2016-06-13T08:18:14.919Z,81.32
2016-06-13T08:19:14.906Z,81.52
2016-06-13T08:21:14.850Z,81.61
2016-06-13T08:22:11.868Z,81.61
2016-06-13T08:24:12.202Z,81.9
2016-06-13T08:25:11.752Z,81.9
2016-06-13T08:26:11.740Z,81.57
2016-06-13T08:27:14.728Z,81.57
2016-06-13T08:28:11.808Z,81.48
2016-06-13T08:29:11.671Z,81.57
2016-06-13T08:30:11.690Z,81.67
2016-06-13T08:31:11.599Z,80.84
2016-06-13T08:32:11.602Z,80.75
2016-06-13T08:33:11.590Z,80.75
2016-06-13T08:34:11.546Z,81.13
2016-06-13T08:35:11.549Z,80.65
2016-06-13T08:36:11.568Z,80.75
2016-06-13T08:37:11.556Z,80.55
2016-06-13T08:38:11.481Z,80.6
2016-06-13T08:39:11.467Z,80.46
2016-06-13T08:40:11.627Z,80.17
2016-06-13T08:41:11.427Z,80.5
2016-06-13T08:42:11.413Z,80.3
2016-06-13T08:43:11.230Z,80.21
2016-06-13T08:44:11.452Z,80.21
2016-06-13T08:45:11.330Z,80.21
2016-06-13T08:46:11.317Z,80.4
2016-06-13T08:47:11.289Z,80.21
2016-06-13T08:48:11.276Z,80.4
2016-06-13T08:49:11.265Z,80.11
2016-06-13T08:50:11.251Z,80.5
2016-06-13T08:51:11.301Z,80.11
2016-06-13T08:52:11.242Z,80.11
2016-06-13T08:53:11.152Z,80.4
2016-06-13T08:54:11.138Z,80.6
2016-06-13T08:55:11.126Z,80.4
2016-06-13T08:56:11.098Z,81.07
2016-06-13T08:57:11.101Z,81.17
2016-06-13T08:58:11.838Z,80.79
2016-06-13T08:59:11.045Z,80.88
2016-06-13T09:00:11.032Z,80.98
2016-06-13T09:01:11.020Z,80.79
2016-06-13T09:02:10.991Z,80.75
2016-06-13T09:03:10.963Z,80.98
2016-06-13T09:04:10.981Z,80.75
2016-06-13T09:05:10.923Z,81.04
2016-06-13T09:06:11.019Z,80.65
2016-06-13T09:07:10.913Z,81.23
2016-06-13T09:08:10.869Z,80.75
2016-06-13T09:09:10.841Z,80.94
2016-06-13T09:10:10.829Z,81.13
2016-06-13T09:11:10.799Z,81.13
2016-06-13T09:12:10.881Z,80.84
2016-06-13T09:13:11.119Z,81.23
2016-06-13T09:14:10.731Z,81.23
2016-06-13T09:15:10.719Z,80.84
2016-06-13T09:16:10.754Z,81.13
2016-06-13T09:17:10.678Z,81.13
2016-06-13T09:18:10.556Z,80.94
2016-06-13T09:19:10.638Z,81.61
2016-06-13T09:20:10.641Z,81.42
2016-06-13T09:21:10.658Z,81.71
2016-06-13T09:22:10.584Z,81.52
2016-06-13T09:23:10.572Z,81.81
2016-06-13T09:24:10.558Z,81.61
2016-06-13T09:25:10.515Z,81.42
2016-06-13T09:26:10.503Z,81.9
2016-06-13T09:27:10.474Z,81.42
2016-06-13T09:28:10.462Z,81.52
2016-06-13T09:29:10.450Z,81.9
2016-06-13T09:30:10.421Z,81.52
2016-06-13T09:31:10.377Z,81.52
2016-06-13T09:32:10.365Z,81.32
2016-06-13T09:33:10.353Z,81.52
2016-06-13T09:34:10.324Z,81.32
2016-06-13T09:35:10.312Z,81.52
2016-06-13T09:36:10.408Z,81.42
2016-06-13T09:37:10.271Z,81.61
2016-06-13T09:38:10.258Z,81.61
2016-06-13T09:39:10.230Z,81.04
2016-06-13T09:40:10.202Z,81.32
2016-06-13T09:41:10.205Z,80.75
2016-06-13T09:42:10.161Z,80.75
2016-06-13T09:43:10.196Z,80.94
2016-06-13T09:44:10.137Z,81.37
2016-06-13T09:45:10.107Z,80.6
2016-06-13T09:46:10.110Z,80.65
2016-06-13T09:47:10.083Z,80.69
2016-06-13T09:48:10.039Z,80.3
2016-06-13T09:49:10.041Z,80.11
2016-06-13T09:50:10.014Z,80.5
2016-06-13T09:51:10.080Z,80.21
2016-06-13T09:52:09.958Z,80.3
2016-06-13T09:53:09.961Z,79.73
2016-06-13T09:54:09.995Z,79.82
2016-06-13T09:55:09.905Z,79.82
2016-06-13T09:56:09.876Z,79.86
2016-06-13T09:57:09.879Z,80.06
2016-06-13T09:58:09.852Z,80.15
2016-06-13T09:59:09.916Z,79.48
2016-06-13T10:00:09.810Z,79
2016-06-13T10:01:09.766Z,78.61
2016-06-13T10:02:09.754Z,78.46
2016-06-13T10:03:09.742Z,78.36
2016-06-13T10:04:09.728Z,78.27
2016-06-13T10:05:09.779Z,78.02
2016-06-13T10:06:09.688Z,77.53
2016-06-13T10:07:09.660Z,77.34
2016-06-13T10:08:09.647Z,77.73
2016-06-13T10:09:09.667Z,78.02
2016-06-13T10:10:09.606Z,77.83
2016-06-13T10:11:09.594Z,77.73
2016-06-13T10:12:09.566Z,77.53
2016-06-13T10:13:09.976Z,77.73
2016-06-13T10:14:09.525Z,77.53
2016-06-13T10:15:09.528Z,77.67
2016-06-13T10:16:09.516Z,78.06
2016-06-13T10:17:09.519Z,77.58
2016-06-13T10:18:09.459Z,77.48
2016-06-13T10:19:09.430Z,77.38
2016-06-13T10:20:09.419Z,77.76
2016-06-13T10:21:09.406Z,77.58
2016-06-13T10:22:09.409Z,77.76
2016-06-13T10:23:09.349Z,77.76
2016-06-13T10:24:09.338Z,77.58
2016-06-13T10:25:09.309Z,77.76
2016-06-13T10:26:09.296Z,77.38
2016-06-13T10:27:09.315Z,78.15
2016-06-13T10:28:09.334Z,78.25
2016-06-13T10:29:09.353Z,78.79
2016-06-13T10:30:09.245Z,78.59
2016-06-13T10:31:09.312Z,79.27
2016-06-13T10:32:09.174Z,78.98
2016-06-13T10:33:09.177Z,79.46
2016-06-13T10:34:09.133Z,79.17
2016-06-13T10:35:09.137Z,78.88
2016-06-13T10:36:09.124Z,78.98
2016-06-13T10:37:09.158Z,79.17
2016-06-13T10:38:09.099Z,79.08
2016-06-13T10:39:09.039Z,79.08
2016-06-13T10:40:09.011Z,79.08
2016-06-13T10:41:08.999Z,79.17
2016-06-13T10:42:08.971Z,78.69
2016-06-13T10:43:09.255Z,78.4
2016-06-13T10:44:15.054Z,77.58
2016-06-13T10:45:08.902Z,77.67
2016-06-13T10:46:08.889Z,77.28
2016-06-13T10:47:08.877Z,77.38
2016-06-13T10:48:08.880Z,77.33
2016-06-13T10:49:08.851Z,77.33
2016-06-13T10:50:08.823Z,77.03
2016-06-13T10:51:08.810Z,77.03
2016-06-13T10:52:08.798Z,77.51
2016-06-13T10:53:08.676Z,76.93
2016-06-13T10:54:09.069Z,77.13
2016-06-13T10:55:08.730Z,77.33
2016-06-13T10:56:08.748Z,77.33
2016-06-13T10:57:08.689Z,76.84
2016-06-13T10:58:09.176Z,76.55
2016-06-13T10:59:08.648Z,76.93
2016-06-13T11:00:08.651Z,77.03
2016-06-13T11:01:08.607Z,77.81
2016-06-13T11:02:08.594Z,78.09
2016-06-13T11:03:08.582Z,78.73
2016-06-13T11:04:08.554Z,78.63
2016-06-13T11:05:08.541Z,79.41
2016-06-13T11:06:08.514Z,79.21
2016-06-13T11:07:08.501Z,79.27
2016-06-13T11:08:08.520Z,79.17
2016-06-13T11:09:08.460Z,78.5
2016-06-13T11:10:08.463Z,78.69
2016-06-13T11:11:08.404Z,78.4
2016-06-13T11:12:08.407Z,78.15
2016-06-13T11:13:09.785Z,77.73
2016-06-13T11:14:08.366Z,77.53
2016-06-13T11:15:08.322Z,77.58
2016-06-13T11:16:08.387Z,77.58
2016-06-13T11:17:08.297Z,77.76
2016-06-13T11:18:08.643Z,77.76
2016-06-13T11:19:08.318Z,77.58
2016-06-13T11:20:08.229Z,77.38
2016-06-13T11:21:08.216Z,77.58
2016-06-13T11:22:08.203Z,77.63
2016-06-13T11:23:08.205Z,77.34
2016-06-13T11:24:08.178Z,77.53
2016-06-13T11:25:08.119Z,77.63
2016-06-13T11:26:08.153Z,77.53
2016-06-13T11:27:08.125Z,77.63
2016-06-13T11:28:08.003Z,77.53
2016-06-13T11:29:08.631Z,77.63
2016-06-13T11:30:08.321Z,77.63
2016-06-13T11:31:08.027Z,77.73
2016-06-13T11:32:08.030Z,77.19
2016-06-13T11:33:08.002Z,77.09
2016-06-13T11:34:07.990Z,77
2016-06-13T11:35:07.946Z,77.19
2016-06-13T11:36:07.934Z,77.38
2016-06-13T11:37:07.999Z,77.38
2016-06-13T11:38:07.909Z,77.19
2016-06-13T11:39:07.912Z,77
2016-06-13T11:40:07.852Z,77.09
2016-06-13T11:41:07.855Z,77.38
2016-06-13T11:42:07.905Z,77.38
2016-06-13T11:43:07.986Z,77.09
2016-06-13T11:44:07.834Z,77.28
2016-06-13T11:45:07.774Z,76.8
2016-06-13T11:46:07.823Z,77
2016-06-13T11:47:07.717Z,76.71
2016-06-13T11:48:07.704Z,76.9
2016-06-13T11:49:07.692Z,76.75
2016-06-13T11:50:07.648Z,76.55
2016-06-13T11:51:07.730Z,76.93
2016-06-13T11:52:07.608Z,76.75
2016-06-13T11:53:07.595Z,76.93
2016-06-13T11:54:07.567Z,76.45
2016-06-13T11:55:07.398Z,76.75
2016-06-13T11:56:07.526Z,77.23
2016-06-13T11:57:07.530Z,77.03
2016-06-13T11:58:07.532Z,76.93
2016-06-13T11:59:07.598Z,77
2016-06-13T12:00:07.491Z,77
2016-06-13T12:01:07.433Z,76.42
2016-06-13T12:02:07.451Z,77.19
2016-06-13T12:03:07.391Z,77.28
2016-06-13T12:04:07.379Z,77.38
2016-06-13T12:05:07.366Z,77.28
2016-06-13T12:06:07.337Z,77.09
2016-06-13T12:07:07.357Z,77.19
2016-06-13T12:08:07.282Z,76.9
2016-06-13T12:09:07.316Z,77.09
2016-06-13T12:10:07.288Z,77.48
2016-06-13T12:11:07.228Z,77.86
2016-06-13T12:12:07.216Z,77.48
2016-06-13T12:13:07.250Z,77.44
2016-06-13T12:14:07.425Z,77.92
2016-06-13T12:15:07.351Z,78.11
2016-06-13T12:16:07.150Z,78.5
2016-06-13T12:17:07.121Z,77.73
2016-06-13T12:18:07.125Z,77.63
2016-06-13T12:19:07.097Z,77.44
2016-06-13T12:20:07.100Z,77.44
2016-06-13T12:21:07.041Z,77.73
2016-06-13T12:22:07.090Z,77.44
2016-06-13T12:23:07.015Z,77.58
2016-06-13T12:24:06.971Z,77.15
2016-06-13T12:25:06.960Z,77.15
2016-06-13T12:26:06.946Z,77.25
2016-06-13T12:27:06.934Z,77.28
2016-06-13T12:28:06.953Z,76.8
2016-06-13T12:29:06.894Z,76.03
2016-06-13T12:30:06.944Z,74.91
2016-06-13T12:31:06.852Z,75.43
2016-06-13T12:32:06.871Z,75.3
2016-06-13T12:33:06.859Z,75.05
2016-06-13T12:34:06.887Z,74.21
2016-06-13T12:35:06.884Z,73.83
2016-06-13T12:36:06.911Z,75.09
2016-06-13T12:37:06.940Z,75.24
2016-06-13T12:38:06.932Z,75.72
2016-06-13T12:39:06.918Z,75.49
2016-06-13T12:40:06.983Z,75.43
2016-06-13T12:41:06.954Z,75.05
2016-06-13T12:42:06.925Z,75.72
2016-06-13T12:43:06.951Z,75.72
2016-06-13T12:44:06.897Z,76.45
2016-06-13T12:45:06.920Z,76.75
2016-06-13T12:46:06.866Z,76.84
2016-06-13T12:47:06.874Z,77.13
2016-06-13T12:48:06.848Z,77.13
2016-06-13T12:49:06.822Z,77.33
2016-06-13T12:50:06.796Z,77.23
2016-06-13T12:51:06.785Z,77.42
2016-06-13T12:52:06.790Z,77.33
2016-06-13T12:53:06.826Z,77.33
2016-06-13T12:54:06.736Z,77.42
2016-06-13T12:55:06.755Z,77.38
2016-06-13T12:56:06.712Z,77.42
2016-06-13T12:57:06.716Z,76.9
2016-06-13T12:58:06.653Z,76.8
2016-06-13T12:59:06.720Z,76.36
2016-06-13T13:00:06.629Z,76.65
2016-06-13T13:01:06.617Z,76.55
2016-06-13T13:02:06.605Z,76.55
2016-06-13T13:03:06.562Z,76.75
2016-06-13T13:04:06.532Z,77.13
2016-06-13T13:05:06.505Z,77.13